sensor_id;sensor_type;location;lat;lon;timestamp;pressure;altitude;pressure_sealevel;temperature;humidity
77725;BME280;66892;53.236;6.550;2024-03-22T00:00:57;101993.06;;;9.30;100.00
77725;BME280;66892;53.236;6.550;2024-03-22T00:03:23;101990.38;;;9.27;100.00
77725;BME280;66892;53.236;6.550;2024-03-22T00:05:49;101991.28;;;9.27;100.00
77725;BME280;66892;53.236;6.550;2024-03-22T00:08:15;101992.13;;;9.26;100.00
77725;BME280;66892;53.236;6.550;2024-03-22T00:10:41;101984.31;;;9.32;100.00
77725;BME280;66892;53.236;6.550;2024-03-22T00:13:07;101983.41;;;9.30;100.00
77725;BME280;66892;53.236;6.550;2024-03-22T00:15:34;101980.78;;;9.32;100.00
77725;BME280;66892;53.236;6.550;2024-03-22T00:18:00;101978.97;;;9.29;100.00
77725;BME280;66892;53.236;6.550;2024-03-22T00:20:26;101977.25;;;9.31;100.00
77725;BME280;66892;53.236;6.550;2024-03-22T00:22:52;101970.16;;;9.27;100.00
77725;BME280;66892;53.236;6.550;2024-03-22T00:25:18;101966.75;;;9.33;100.00
77725;BME280;66892;53.236;6.550;2024-03-22T00:27:44;101951.69;;;9.29;100.00
77725;BME280;66892;53.236;6.550;2024-03-22T00:30:11;101949.03;;;9.27;100.00
77725;BME280;66892;53.236;6.550;2024-03-22T00:32:38;101946.41;;;9.27;100.00
77725;BME280;66892;53.236;6.550;2024-03-22T00:35:04;101937.66;;;9.31;100.00
77725;BME280;66892;53.236;6.550;2024-03-22T00:37:30;101931.53;;;9.32;100.00
77725;BME280;66892;53.236;6.550;2024-03-22T00:39:56;101921.03;;;9.34;100.00
77725;BME280;66892;53.236;6.550;2024-03-22T00:42:22;101911.31;;;9.34;100.00
77725;BME280;66892;53.236;6.550;2024-03-22T00:44:48;101913.00;;;9.29;100.00
77725;BME280;66892;53.236;6.550;2024-03-22T00:47:14;101902.44;;;9.28;100.00
77725;BME280;66892;53.236;6.550;2024-03-22T00:49:42;101905.88;;;9.24;100.00
77725;BME280;66892;53.236;6.550;2024-03-22T00:52:08;101899.69;;;9.25;100.00
77725;BME280;66892;53.236;6.550;2024-03-22T00:54:34;101876.78;;;9.22;100.00
77725;BME280;66892;53.236;6.550;2024-03-22T00:57:01;101886.44;;;9.20;100.00
77725;BME280;66892;53.236;6.550;2024-03-22T00:59:27;101886.41;;;9.19;100.00
77725;BME280;66892;53.236;6.550;2024-03-22T01:01:53;101882.06;;;9.21;100.00
77725;BME280;66892;53.236;6.550;2024-03-22T01:04:19;101878.47;;;9.19;100.00
77725;BME280;66892;53.236;6.550;2024-03-22T01:06:46;101895.19;;;9.18;100.00
77725;BME280;66892;53.236;6.550;2024-03-22T01:09:12;101882.00;;;9.18;100.00
77725;BME280;66892;53.236;6.550;2024-03-22T01:11:38;101880.22;;;9.17;100.00
77725;BME280;66892;53.236;6.550;2024-03-22T01:14:04;101881.94;;;9.15;100.00
77725;BME280;66892;53.236;6.550;2024-03-22T01:16:30;101873.19;;;9.19;100.00
77725;BME280;66892;53.236;6.550;2024-03-22T01:18:56;101875.78;;;9.16;100.00
77725;BME280;66892;53.236;6.550;2024-03-22T01:21:22;101860.91;;;9.19;100.00
77725;BME280;66892;53.236;6.550;2024-03-22T01:23:52;101858.34;;;9.24;100.00
77725;BME280;66892;53.236;6.550;2024-03-22T01:26:18;101854.84;;;9.25;100.00
77725;BME280;66892;53.236;6.550;2024-03-22T01:28:44;101846.09;;;9.27;100.00
77725;BME280;66892;53.236;6.550;2024-03-22T01:31:10;101847.97;;;9.33;100.00
77725;BME280;66892;53.236;6.550;2024-03-22T01:33:36;101851.50;;;9.35;100.00
77725;BME280;66892;53.236;6.550;2024-03-22T01:36:02;101855.94;;;9.36;100.00
77725;BME280;66892;53.236;6.550;2024-03-22T01:38:31;101841.00;;;9.38;100.00
77725;BME280;66892;53.236;6.550;2024-03-22T01:40:58;101841.03;;;9.39;100.00
77725;BME280;66892;53.236;6.550;2024-03-22T01:43:24;101824.41;;;9.43;100.00
77725;BME280;66892;53.236;6.550;2024-03-22T01:45:50;101831.44;;;9.44;100.00
77725;BME280;66892;53.236;6.550;2024-03-22T01:48:16;101820.03;;;9.45;100.00
77725;BME280;66892;53.236;6.550;2024-03-22T01:50:42;101822.69;;;9.47;100.00
77725;BME280;66892;53.236;6.550;2024-03-22T01:53:09;101816.56;;;9.49;100.00
77725;BME280;66892;53.236;6.550;2024-03-22T01:55:35;101820.97;;;9.49;100.00
77725;BME280;66892;53.236;6.550;2024-03-22T01:58:03;101823.59;;;9.49;100.00
77725;BME280;66892;53.236;6.550;2024-03-22T02:00:29;101818.38;;;9.53;100.00
77725;BME280;66892;53.236;6.550;2024-03-22T02:02:56;101818.34;;;9.50;100.00
77725;BME280;66892;53.236;6.550;2024-03-22T02:05:22;101814.03;;;9.57;100.00
77725;BME280;66892;53.236;6.550;2024-03-22T02:07:50;101808.72;;;9.54;100.00
77725;BME280;66892;53.236;6.550;2024-03-22T02:10:16;101816.63;;;9.54;100.00
77725;BME280;66892;53.236;6.550;2024-03-22T02:12:42;101805.25;;;9.57;100.00
77725;BME280;66892;53.236;6.550;2024-03-22T02:15:10;101799.13;;;9.61;100.00
77725;BME280;66892;53.236;6.550;2024-03-22T02:17:36;101792.91;;;9.56;100.00
77725;BME280;66892;53.236;6.550;2024-03-22T02:20:02;101790.28;;;9.57;100.00
77725;BME280;66892;53.236;6.550;2024-03-22T02:22:30;101784.16;;;9.58;100.00
77725;BME280;66892;53.236;6.550;2024-03-22T02:24:57;101778.00;;;9.59;100.00
77725;BME280;66892;53.236;6.550;2024-03-22T02:27:24;101778.88;;;9.58;100.00
77725;BME280;66892;53.236;6.550;2024-03-22T02:29:51;101778.81;;;9.55;100.00
77725;BME280;66892;53.236;6.550;2024-03-22T02:32:17;101783.16;;;9.51;100.00
77725;BME280;66892;53.236;6.550;2024-03-22T02:34:43;101773.31;;;9.40;100.00
77725;BME280;66892;53.236;6.550;2024-03-22T02:37:08;101769.63;;;9.32;100.00
77725;BME280;66892;53.236;6.550;2024-03-22T02:39:34;101775.69;;;9.26;100.00
77725;BME280;66892;53.236;6.550;2024-03-22T02:42:02;101773.03;;;9.25;100.00
77725;BME280;66892;53.236;6.550;2024-03-22T02:44:28;101772.13;;;9.21;100.00
77725;BME280;66892;53.236;6.550;2024-03-22T02:46:54;101769.44;;;9.20;100.00
77725;BME280;66892;53.236;6.550;2024-03-22T02:49:20;101765.00;;;9.19;100.00
77725;BME280;66892;53.236;6.550;2024-03-22T02:51:46;101757.19;;;9.23;100.00
77725;BME280;66892;53.236;6.550;2024-03-22T02:54:12;101757.41;;;9.37;100.00
77725;BME280;66892;53.236;6.550;2024-03-22T02:56:38;101759.22;;;9.39;100.00
77725;BME280;66892;53.236;6.550;2024-03-22T02:59:06;101734.66;;;9.45;100.00
77725;BME280;66892;53.236;6.550;2024-03-22T03:01:32;101730.34;;;9.50;100.00
77725;BME280;66892;53.236;6.550;2024-03-22T03:03:58;101724.19;;;9.51;100.00
77725;BME280;66892;53.236;6.550;2024-03-22T03:06:24;101718.91;;;9.51;100.00
77725;BME280;66892;53.236;6.550;2024-03-22T03:08:50;101713.63;;;9.51;100.00
77725;BME280;66892;53.236;6.550;2024-03-22T03:11:16;101710.09;;;9.50;100.00
77725;BME280;66892;53.236;6.550;2024-03-22T03:13:42;101704.75;;;9.46;100.00
77725;BME280;66892;53.236;6.550;2024-03-22T03:16:09;101705.66;;;9.48;100.00
77725;BME280;66892;53.236;6.550;2024-03-22T03:18:35;101710.94;;;9.48;100.00
77725;BME280;66892;53.236;6.550;2024-03-22T03:21:01;101701.25;;;9.48;100.00
77725;BME280;66892;53.236;6.550;2024-03-22T03:23:27;101702.97;;;9.45;100.00
77725;BME280;66892;53.236;6.550;2024-03-22T03:25:53;101699.56;;;9.53;100.00
77725;BME280;66892;53.236;6.550;2024-03-22T03:28:19;101699.63;;;9.57;100.00
77725;BME280;66892;53.236;6.550;2024-03-22T03:30:45;101688.16;;;9.53;100.00
77725;BME280;66892;53.236;6.550;2024-03-22T03:33:13;101694.19;;;9.46;100.00
77725;BME280;66892;53.236;6.550;2024-03-22T03:35:39;101689.91;;;9.52;100.00
77725;BME280;66892;53.236;6.550;2024-03-22T03:38:05;101689.03;;;9.55;100.00
77725;BME280;66892;53.236;6.550;2024-03-22T03:40:32;101679.50;;;9.63;100.00
77725;BME280;66892;53.236;6.550;2024-03-22T03:42:58;101688.34;;;9.68;100.00
77725;BME280;66892;53.236;6.550;2024-03-22T03:45:24;101683.16;;;9.73;100.00
77725;BME280;66892;53.236;6.550;2024-03-22T03:47:50;101677.91;;;9.77;100.00
77725;BME280;66892;53.236;6.550;2024-03-22T03:50:17;101674.38;;;9.77;100.00
77725;BME280;66892;53.236;6.550;2024-03-22T03:52:43;101676.22;;;9.82;100.00
77725;BME280;66892;53.236;6.550;2024-03-22T03:55:09;101681.56;;;9.85;100.00
77725;BME280;66892;53.236;6.550;2024-03-22T03:57:35;101671.03;;;9.88;100.00
77725;BME280;66892;53.236;6.550;2024-03-22T04:00:01;101673.66;;;9.88;100.00
77725;BME280;66892;53.236;6.550;2024-03-22T04:02:27;101672.81;;;9.91;100.00
77725;BME280;66892;53.236;6.550;2024-03-22T04:04:53;101675.44;;;9.92;100.00
77725;BME280;66892;53.236;6.550;2024-03-22T04:07:21;101669.34;;;9.95;100.00
77725;BME280;66892;53.236;6.550;2024-03-22T04:09:47;101672.84;;;9.95;100.00
77725;BME280;66892;53.236;6.550;2024-03-22T04:12:13;101672.06;;;10.01;100.00
77725;BME280;66892;53.236;6.550;2024-03-22T04:14:39;101669.44;;;10.05;100.00
77725;BME280;66892;53.236;6.550;2024-03-22T04:17:05;101666.78;;;10.02;100.00
77725;BME280;66892;53.236;6.550;2024-03-22T04:19:31;101663.28;;;10.03;100.00
77725;BME280;66892;53.236;6.550;2024-03-22T04:21:57;101659.81;;;10.09;100.00
77725;BME280;66892;53.236;6.550;2024-03-22T04:24:24;101653.56;;;10.02;100.00
77725;BME280;66892;53.236;6.550;2024-03-22T04:26:50;101651.81;;;10.03;100.00
77725;BME280;66892;53.236;6.550;2024-03-22T04:29:16;101651.78;;;10.00;100.00
77725;BME280;66892;53.236;6.550;2024-03-22T04:31:42;101636.78;;;9.99;100.00
77725;BME280;66892;53.236;6.550;2024-03-22T04:34:08;101640.41;;;10.07;100.00
77725;BME280;66892;53.236;6.550;2024-03-22T04:36:36;101640.41;;;10.07;100.00
77725;BME280;66892;53.236;6.550;2024-03-22T04:39:02;101639.50;;;10.05;100.00
77725;BME280;66892;53.236;6.550;2024-03-22T04:41:30;101635.06;;;10.02;100.00
77725;BME280;66892;53.236;6.550;2024-03-22T04:43:56;101620.97;;;10.00;100.00
77725;BME280;66892;53.236;6.550;2024-03-22T04:46:22;101620.94;;;9.99;100.00
77725;BME280;66892;53.236;6.550;2024-03-22T04:48:48;101611.25;;;9.98;100.00
77725;BME280;66892;53.236;6.550;2024-03-22T04:51:14;101604.19;;;9.97;100.00
77725;BME280;66892;53.236;6.550;2024-03-22T04:53:40;101609.50;;;9.98;100.00
77725;BME280;66892;53.236;6.550;2024-03-22T04:56:06;101620.06;;;9.98;100.00
77725;BME280;66892;53.236;6.550;2024-03-22T04:58:34;101605.13;;;10.03;100.00
77725;BME280;66892;53.236;6.550;2024-03-22T05:01:00;101605.94;;;9.95;100.00
77725;BME280;66892;53.236;6.550;2024-03-22T05:03:26;101600.66;;;9.96;100.00
77725;BME280;66892;53.236;6.550;2024-03-22T05:05:52;101601.47;;;9.92;100.00
77725;BME280;66892;53.236;6.550;2024-03-22T05:08:19;101585.63;;;9.92;100.00
77725;BME280;66892;53.236;6.550;2024-03-22T05:10:45;101598.88;;;9.94;100.00
77725;BME280;66892;53.236;6.550;2024-03-22T05:13:11;101604.16;;;9.95;100.00
77725;BME280;66892;53.236;6.550;2024-03-22T05:15:38;101613.91;;;9.98;100.00
77725;BME280;66892;53.236;6.550;2024-03-22T05:18:04;101615.66;;;9.97;100.00
77725;BME280;66892;53.236;6.550;2024-03-22T05:20:31;101613.00;;;9.99;100.00
77725;BME280;66892;53.236;6.550;2024-03-22T05:22:57;101608.59;;;9.98;100.00
77725;BME280;66892;53.236;6.550;2024-03-22T05:25:23;101604.22;;;9.98;100.00
77725;BME280;66892;53.236;6.550;2024-03-22T05:27:49;101603.31;;;9.99;100.00
77725;BME280;66892;53.236;6.550;2024-03-22T05:30:15;101607.72;;;9.99;100.00
77725;BME280;66892;53.236;6.550;2024-03-22T05:32:42;101618.31;;;10.00;100.00
77725;BME280;66892;53.236;6.550;2024-03-22T05:35:08;101623.59;;;10.02;100.00
77725;BME280;66892;53.236;6.550;2024-03-22T05:37:34;101613.91;;;9.98;100.00
77725;BME280;66892;53.236;6.550;2024-03-22T05:40:01;101587.44;;;9.95;100.00
77725;BME280;66892;53.236;6.550;2024-03-22T05:42:27;101590.03;;;9.90;100.00
77725;BME280;66892;53.236;6.550;2024-03-22T05:44:55;101592.59;;;9.84;100.00
77725;BME280;66892;53.236;6.550;2024-03-22T05:47:21;101615.41;;;9.79;100.00
77725;BME280;66892;53.236;6.550;2024-03-22T05:49:49;101610.13;;;9.78;100.00
77725;BME280;66892;53.236;6.550;2024-03-22T05:52:15;101608.34;;;9.77;100.00
77725;BME280;66892;53.236;6.550;2024-03-22T05:54:41;101598.63;;;9.73;100.00
77725;BME280;66892;53.236;6.550;2024-03-22T05:57:07;101580.06;;;9.70;100.00
77725;BME280;66892;53.236;6.550;2024-03-22T05:59:33;101572.13;;;9.65;100.00
77725;BME280;66892;53.236;6.550;2024-03-22T06:01:59;101575.63;;;9.63;100.00
77725;BME280;66892;53.236;6.550;2024-03-22T06:04:25;101580.88;;;9.61;100.00
77725;BME280;66892;53.236;6.550;2024-03-22T06:06:53;101587.81;;;9.53;100.00
77725;BME280;66892;53.236;6.550;2024-03-22T06:09:19;101582.47;;;9.48;100.00
77725;BME280;66892;53.236;6.550;2024-03-22T06:12:00;101596.50;;;9.46;100.00
77725;BME280;66892;53.236;6.550;2024-03-22T06:14:28;101579.81;;;9.47;100.00
77725;BME280;66892;53.236;6.550;2024-03-22T06:16:54;101593.84;;;9.43;100.00
77725;BME280;66892;53.236;6.550;2024-03-22T06:19:20;101578.88;;;9.43;100.00
77725;BME280;66892;53.236;6.550;2024-03-22T06:21:46;101576.13;;;9.36;100.00
77725;BME280;66892;53.236;6.550;2024-03-22T06:24:15;101577.03;;;9.38;100.00
77725;BME280;66892;53.236;6.550;2024-03-22T06:26:41;101573.56;;;9.42;100.00
77725;BME280;66892;53.236;6.550;2024-03-22T06:29:07;101577.88;;;9.34;100.00
77725;BME280;66892;53.236;6.550;2024-03-22T06:31:33;101582.25;;;9.32;100.00
77725;BME280;66892;53.236;6.550;2024-03-22T06:33:59;101591.91;;;9.30;100.00
77725;BME280;66892;53.236;6.550;2024-03-22T06:36:28;101597.19;;;9.31;100.00
77725;BME280;66892;53.236;6.550;2024-03-22T06:38:54;101591.03;;;9.31;100.00
77725;BME280;66892;53.236;6.550;2024-03-22T06:41:22;101584.88;;;9.30;100.00
77725;BME280;66892;53.236;6.550;2024-03-22T06:43:48;101591.00;;;9.29;100.00
77725;BME280;66892;53.236;6.550;2024-03-22T06:46:14;101583.09;;;9.28;100.00
77725;BME280;66892;53.236;6.550;2024-03-22T06:48:40;101569.84;;;9.26;100.00
77725;BME280;66892;53.236;6.550;2024-03-22T06:51:06;101568.06;;;9.24;100.00
77725;BME280;66892;53.236;6.550;2024-03-22T06:53:32;101576.97;;;9.30;100.00
77725;BME280;66892;53.236;6.550;2024-03-22T06:55:58;101569.00;;;9.29;100.00
77725;BME280;66892;53.236;6.550;2024-03-22T06:58:25;101573.44;;;9.30;100.00
77725;BME280;66892;53.236;6.550;2024-03-22T07:00:51;101565.47;;;9.28;100.00
77725;BME280;66892;53.236;6.550;2024-03-22T07:03:17;101562.81;;;9.27;100.00
77725;BME280;66892;53.236;6.550;2024-03-22T07:05:43;101570.75;;;9.28;100.00
77725;BME280;66892;53.236;6.550;2024-03-22T07:08:09;101570.75;;;9.27;100.00
77725;BME280;66892;53.236;6.550;2024-03-22T07:10:38;101552.28;;;9.27;100.00
77725;BME280;66892;53.236;6.550;2024-03-22T07:13:05;101557.47;;;9.22;100.00
77725;BME280;66892;53.236;6.550;2024-03-22T07:15:32;101561.91;;;9.23;100.00
77725;BME280;66892;53.236;6.550;2024-03-22T07:17:59;101561.97;;;9.28;100.00
77725;BME280;66892;53.236;6.550;2024-03-22T07:20:25;101551.38;;;9.26;100.00
77725;BME280;66892;53.236;6.550;2024-03-22T07:22:51;101561.06;;;9.27;100.00
77725;BME280;66892;53.236;6.550;2024-03-22T07:25:17;101553.25;;;9.33;100.00
77725;BME280;66892;53.236;6.550;2024-03-22T07:27:43;101547.88;;;9.29;100.00
77725;BME280;66892;53.236;6.550;2024-03-22T07:30:10;101552.34;;;9.33;100.00
77725;BME280;66892;53.236;6.550;2024-03-22T07:32:37;101558.47;;;9.30;100.00
77725;BME280;66892;53.236;6.550;2024-03-22T07:35:04;101565.53;;;9.34;100.00
77725;BME280;66892;53.236;6.550;2024-03-22T07:37:30;101554.16;;;9.37;100.00
77725;BME280;66892;53.236;6.550;2024-03-22T07:39:56;101557.75;;;9.42;100.00
77725;BME280;66892;53.236;6.550;2024-03-22T07:42:22;101555.94;;;9.39;100.00
77725;BME280;66892;53.236;6.550;2024-03-22T07:44:48;101548.97;;;9.44;100.00
77725;BME280;66892;53.236;6.550;2024-03-22T07:47:14;101555.16;;;9.46;100.00
77725;BME280;66892;53.236;6.550;2024-03-22T07:49:41;101549.88;;;9.46;100.00
77725;BME280;66892;53.236;6.550;2024-03-22T07:52:08;101549.94;;;9.51;100.00
77725;BME280;66892;53.236;6.550;2024-03-22T07:54:34;101549.94;;;9.51;100.00
77725;BME280;66892;53.236;6.550;2024-03-22T07:56:59;101556.06;;;9.48;100.00
77725;BME280;66892;53.236;6.550;2024-03-22T07:59:25;101558.69;;;9.47;100.00
77725;BME280;66892;53.236;6.550;2024-03-22T08:01:51;101556.91;;;9.47;100.00
77725;BME280;66892;53.236;6.550;2024-03-22T08:04:17;101557.84;;;9.51;100.00
77725;BME280;66892;53.236;6.550;2024-03-22T08:06:45;101557.00;;;9.53;100.00
77725;BME280;66892;53.236;6.550;2024-03-22T08:09:11;101550.81;;;9.51;100.00
77725;BME280;66892;53.236;6.550;2024-03-22T08:11:37;101556.13;;;9.54;100.00
77725;BME280;66892;53.236;6.550;2024-03-22T08:14:03;101555.16;;;9.48;100.00
77725;BME280;66892;53.236;6.550;2024-03-22T08:16:30;101551.69;;;9.49;100.00
77725;BME280;66892;53.236;6.550;2024-03-22T08:18:56;101561.38;;;9.50;100.00
77725;BME280;66892;53.236;6.550;2024-03-22T08:21:22;101555.22;;;9.49;100.00
77725;BME280;66892;53.236;6.550;2024-03-22T08:23:50;101545.50;;;9.48;100.00
77725;BME280;66892;53.236;6.550;2024-03-22T08:26:16;101547.22;;;9.45;100.00
77725;BME280;66892;53.236;6.550;2024-03-22T08:28:42;101555.22;;;9.51;100.00
77725;BME280;66892;53.236;6.550;2024-03-22T08:31:08;101549.09;;;9.55;100.00
77725;BME280;66892;53.236;6.550;2024-03-22T08:33:34;101542.97;;;9.58;100.00
77725;BME280;66892;53.236;6.550;2024-03-22T08:36:00;101550.88;;;9.58;100.00
77725;BME280;66892;53.236;6.550;2024-03-22T08:38:26;101546.53;;;9.61;100.00
77725;BME280;66892;53.236;6.550;2024-03-22T08:40:54;101550.84;;;9.54;100.00
77725;BME280;66892;53.236;6.550;2024-03-22T08:43:20;101544.69;;;9.54;100.00
77725;BME280;66892;53.236;6.550;2024-03-22T08:45:48;101541.13;;;9.50;100.00
77725;BME280;66892;53.236;6.550;2024-03-22T08:48:14;101542.03;;;9.52;100.00
77725;BME280;66892;53.236;6.550;2024-03-22T08:50:42;101549.03;;;9.50;100.00
77725;BME280;66892;53.236;6.550;2024-03-22T08:53:08;101542.03;;;9.52;100.00
77725;BME280;66892;53.236;6.550;2024-03-22T08:55:34;101543.75;;;9.50;100.00
77725;BME280;66892;53.236;6.550;2024-03-22T08:58:01;101542.91;;;9.51;100.00
77725;BME280;66892;53.236;6.550;2024-03-22T09:00:27;101537.69;;;9.56;100.00
77725;BME280;66892;53.236;6.550;2024-03-22T09:02:53;101546.50;;;9.57;100.00
77725;BME280;66892;53.236;6.550;2024-03-22T09:05:19;101545.59;;;9.58;100.00
77725;BME280;66892;53.236;6.550;2024-03-22T09:07:45;101543.00;;;9.59;100.00
77725;BME280;66892;53.236;6.550;2024-03-22T09:10:11;101550.09;;;9.65;100.00
77725;BME280;66892;53.236;6.550;2024-03-22T09:12:37;101536.94;;;9.66;100.00
77725;BME280;66892;53.236;6.550;2024-03-22T09:15:06;101542.25;;;9.71;100.00
77725;BME280;66892;53.236;6.550;2024-03-22T09:17:33;101540.47;;;9.68;100.00
77725;BME280;66892;53.236;6.550;2024-03-22T09:19:59;101537.84;;;9.71;100.00
77725;BME280;66892;53.236;6.550;2024-03-22T09:22:25;101537.84;;;9.71;100.00
77725;BME280;66892;53.236;6.550;2024-03-22T09:24:51;101543.16;;;9.73;100.00
77725;BME280;66892;53.236;6.550;2024-03-22T09:27:17;101538.69;;;9.66;100.00
77725;BME280;66892;53.236;6.550;2024-03-22T09:29:43;101549.28;;;9.69;100.00
77725;BME280;66892;53.236;6.550;2024-03-22T09:32:10;101539.56;;;9.68;100.00
77725;BME280;66892;53.236;6.550;2024-03-22T09:34:37;101547.50;;;9.66;100.00
77725;BME280;66892;53.236;6.550;2024-03-22T09:37:03;101542.13;;;9.60;100.00
77725;BME280;66892;53.236;6.550;2024-03-22T09:39:29;101546.53;;;9.60;100.00
77725;BME280;66892;53.236;6.550;2024-03-22T09:41:57;101538.63;;;9.61;100.00
77725;BME280;66892;53.236;6.550;2024-03-22T09:44:24;101547.50;;;9.68;100.00
77725;BME280;66892;53.236;6.550;2024-03-22T09:46:53;101543.09;;;9.68;100.00
77725;BME280;66892;53.236;6.550;2024-03-22T09:49:21;101547.50;;;9.66;100.00
77725;BME280;66892;53.236;6.550;2024-03-22T09:51:51;101553.63;;;9.65;100.00
77725;BME280;66892;53.236;6.550;2024-03-22T09:54:17;101553.63;;;9.67;100.00
77725;BME280;66892;53.236;6.550;2024-03-22T09:56:43;101553.59;;;9.64;100.00
77725;BME280;66892;53.236;6.550;2024-03-22T09:59:11;101558.88;;;9.64;100.00
77725;BME280;66892;53.236;6.550;2024-03-22T10:01:38;101551.88;;;9.66;100.00
77725;BME280;66892;53.236;6.550;2024-03-22T10:04:05;101555.44;;;9.69;100.00
77725;BME280;66892;53.236;6.550;2024-03-22T10:06:33;101551.88;;;9.67;100.00
77725;BME280;66892;53.236;6.550;2024-03-22T10:08:59;101550.19;;;9.72;100.00
77725;BME280;66892;53.236;6.550;2024-03-22T10:11:26;101546.69;;;9.76;100.00
77725;BME280;66892;53.236;6.550;2024-03-22T10:13:52;101538.91;;;9.85;100.00
77725;BME280;66892;53.236;6.550;2024-03-22T10:16:18;101532.78;;;9.92;100.00
77725;BME280;66892;53.236;6.550;2024-03-22T10:18:44;101540.75;;;9.94;100.00
77725;BME280;66892;53.236;6.550;2024-03-22T10:21:10;101552.13;;;9.90;100.00
77725;BME280;66892;53.236;6.550;2024-03-22T10:23:37;101560.03;;;9.87;100.00
77725;BME280;66892;53.236;6.550;2024-03-22T10:26:03;101549.44;;;9.84;100.00
77725;BME280;66892;53.236;6.550;2024-03-22T10:28:30;101555.63;;;9.84;100.00
77725;BME280;66892;53.236;6.550;2024-03-22T10:30:56;101547.72;;;9.89;100.00
77725;BME280;66892;53.236;6.550;2024-03-22T10:33:22;101545.13;;;9.93;100.00
77725;BME280;66892;53.236;6.550;2024-03-22T10:35:51;101546.94;;;9.97;100.00
77725;BME280;66892;53.236;6.550;2024-03-22T10:38:18;101550.44;;;9.96;100.00
77725;BME280;66892;53.236;6.550;2024-03-22T10:40:46;101537.25;;;9.95;100.00
77725;BME280;66892;53.236;6.550;2024-03-22T10:43:13;101540.75;;;9.95;100.00
77725;BME280;66892;53.236;6.550;2024-03-22T10:45:40;101553.94;;;9.92;100.00
77725;BME280;66892;53.236;6.550;2024-03-22T10:48:08;101563.66;;;9.95;100.00
77725;BME280;66892;53.236;6.550;2024-03-22T10:50:35;101555.69;;;9.90;100.00
77725;BME280;66892;53.236;6.550;2024-03-22T10:53:06;101556.56;;;9.91;100.00
77725;BME280;66892;53.236;6.550;2024-03-22T10:55:35;101555.75;;;9.95;100.00
77725;BME280;66892;53.236;6.550;2024-03-22T10:58:04;101546.09;;;9.98;100.00
77725;BME280;66892;53.236;6.550;2024-03-22T11:00:31;101543.56;;;10.12;100.00
77725;BME280;66892;53.236;6.550;2024-03-22T11:02:57;101533.13;;;10.23;100.00
77725;BME280;66892;53.236;6.550;2024-03-22T11:05:23;101526.97;;;10.25;100.00
77725;BME280;66892;53.236;6.550;2024-03-22T11:07:58;101527.88;;;10.26;100.00
77725;BME280;66892;53.236;6.550;2024-03-22T11:10:28;101532.38;;;10.37;100.00
77725;BME280;66892;53.236;6.550;2024-03-22T11:12:54;101532.34;;;10.33;100.00
77725;BME280;66892;53.236;6.550;2024-03-22T11:15:21;101529.59;;;10.21;100.00
77725;BME280;66892;53.236;6.550;2024-03-22T11:17:48;101526.03;;;10.17;100.00
77725;BME280;66892;53.236;6.550;2024-03-22T11:20:15;101516.31;;;10.15;100.00
77725;BME280;66892;53.236;6.550;2024-03-22T11:22:41;101515.50;;;10.20;100.00
77725;BME280;66892;53.236;6.550;2024-03-22T11:25:07;101510.19;;;10.17;100.00
77725;BME280;66892;53.236;6.550;2024-03-22T11:27:33;101513.59;;;10.12;100.00
77725;BME280;66892;53.236;6.550;2024-03-22T11:29:59;101520.63;;;10.10;100.00
77725;BME280;66892;53.236;6.550;2024-03-22T11:32:26;101520.72;;;10.16;100.00
77725;BME280;66892;53.236;6.550;2024-03-22T11:34:54;101519.75;;;10.09;100.00
77725;BME280;66892;53.236;6.550;2024-03-22T11:37:20;101516.22;;;10.08;100.00
77725;BME280;66892;53.236;6.550;2024-03-22T11:39:46;101506.56;;;10.11;100.00
77725;BME280;66892;53.236;6.550;2024-03-22T11:42:13;101510.94;;;10.07;100.00
77725;BME280;66892;53.236;6.550;2024-03-22T11:44:40;101517.94;;;10.03;100.00
77725;BME280;66892;53.236;6.550;2024-03-22T11:47:06;101514.44;;;10.04;100.00
77725;BME280;66892;53.236;6.550;2024-03-22T11:49:34;101510.03;;;10.06;100.00
77725;BME280;66892;53.236;6.550;2024-03-22T11:52:02;101500.34;;;10.05;100.00
77725;BME280;66892;53.236;6.550;2024-03-22T11:54:28;101513.53;;;10.02;100.00
77725;BME280;66892;53.236;6.550;2024-03-22T11:56:55;101505.50;;;9.92;100.00
77725;BME280;66892;53.236;6.550;2024-03-22T11:59:22;101503.72;;;9.91;100.00
77725;BME280;66892;53.236;6.550;2024-03-22T12:01:48;101505.44;;;9.87;100.00
77725;BME280;66892;53.236;6.550;2024-03-22T12:04:14;101504.63;;;9.91;100.00
77725;BME280;66892;53.236;6.550;2024-03-22T12:06:42;101509.84;;;9.87;100.00
77725;BME280;66892;53.236;6.550;2024-03-22T12:09:08;101512.34;;;9.73;100.00
77725;BME280;66892;53.236;6.550;2024-03-22T12:11:37;101509.72;;;9.76;100.00
77725;BME280;66892;53.236;6.550;2024-03-22T12:14:03;101514.09;;;9.71;100.00
77725;BME280;66892;53.236;6.550;2024-03-22T12:16:29;101494.75;;;9.72;100.00
77725;BME280;66892;53.236;6.550;2024-03-22T12:18:55;101501.91;;;9.82;100.00
77725;BME280;66892;53.236;6.550;2024-03-22T12:21:21;101502.03;;;9.97;100.00
77725;BME280;66892;53.236;6.550;2024-03-22T12:23:48;101506.69;;;10.23;100.00
77725;BME280;66892;53.236;6.550;2024-03-22T12:26:14;101496.28;;;10.42;100.00
77725;BME280;66892;53.236;6.550;2024-03-22T12:28:40;101493.81;;;10.65;100.00
77725;BME280;66892;53.236;6.550;2024-03-22T12:31:07;101487.69;;;10.74;100.00
77725;BME280;66892;53.236;6.550;2024-03-22T12:33:34;101493.84;;;10.73;100.00
77725;BME280;66892;53.236;6.550;2024-03-22T12:36:00;101494.66;;;10.61;100.00
77725;BME280;66892;53.236;6.550;2024-03-22T12:38:26;101492.81;;;10.48;100.00
77725;BME280;66892;53.236;6.550;2024-03-22T12:40:54;101488.34;;;10.39;100.00
77725;BME280;66892;53.236;6.550;2024-03-22T12:43:20;101490.88;;;10.29;100.00